N315XA KPRC-KABQ
Flight info
| Callsign | N315XA |
|---|---|
| Flight time | 1h 28m |
| Altitude | 11500 |
| Route | ABQ |
| Aircraft | DA42/L-SBDGRY/S |
Departure
| Time | 2026-04-22 03:34 |
|---|---|
| Airport | Prescott Regional Airport - Ernest A. Love Field (KPRC) |
Arrival
| Time | 2026-04-22 05:02 |
|---|---|
| Airport | Albuquerque International Sunport (KABQ) |
| Time | Latitude | Longitude | Altitude | Speed | Heading |
|---|---|---|---|---|---|
| 2026-04-22 03:33 | 34.69239 | -112.00401 | 11406 ft | 149 kts | 92° |
| 2026-04-22 03:34 | 34.69369 | -111.99161 | 11409 ft | 147 kts | 94° |
| 2026-04-22 03:34 | 34.69484 | -111.97924 | 11412 ft | 147 kts | 94° |
| 2026-04-22 03:34 | 34.69594 | -111.96693 | 11417 ft | 147 kts | 94° |
| 2026-04-22 03:34 | 34.69703 | -111.95460 | 11424 ft | 147 kts | 94° |
| 2026-04-22 03:35 | 34.69812 | -111.94220 | 11427 ft | 148 kts | 95° |
| 2026-04-22 03:35 | 34.69923 | -111.92979 | 11434 ft | 148 kts | 94° |
| 2026-04-22 03:35 | 34.70033 | -111.91742 | 11438 ft | 146 kts | 94° |
| 2026-04-22 03:35 | 34.70142 | -111.90515 | 11444 ft | 146 kts | 94° |
| 2026-04-22 03:36 | 34.70250 | -111.89286 | 11447 ft | 147 kts | 94° |
| 2026-04-22 03:36 | 34.70357 | -111.88066 | 11451 ft | 148 kts | 94° |
| 2026-04-22 03:36 | 34.70467 | -111.86824 | 11453 ft | 148 kts | 94° |
| 2026-04-22 03:36 | 34.70577 | -111.85578 | 11457 ft | 148 kts | 95° |
| 2026-04-22 03:37 | 34.70686 | -111.84335 | 11457 ft | 148 kts | 95° |
| 2026-04-22 03:37 | 34.70796 | -111.83090 | 11458 ft | 148 kts | 95° |
| 2026-04-22 03:37 | 34.70905 | -111.81845 | 11461 ft | 148 kts | 95° |
| 2026-04-22 03:37 | 34.71014 | -111.80598 | 11462 ft | 149 kts | 94° |
| 2026-04-22 03:38 | 34.71124 | -111.79345 | 11473 ft | 150 kts | 94° |
| 2026-04-22 03:38 | 34.71233 | -111.78101 | 11473 ft | 150 kts | 93° |
| 2026-04-22 03:38 | 34.71343 | -111.76832 | 11475 ft | 152 kts | 93° |
| 2026-04-22 03:38 | 34.71455 | -111.75545 | 11477 ft | 154 kts | 93° |
| 2026-04-22 03:39 | 34.71569 | -111.74243 | 11476 ft | 156 kts | 93° |
| 2026-04-22 03:39 | 34.71683 | -111.72932 | 11476 ft | 156 kts | 93° |
| 2026-04-22 03:39 | 34.71797 | -111.71617 | 11475 ft | 157 kts | 92° |
| 2026-04-22 03:39 | 34.71912 | -111.70303 | 11473 ft | 156 kts | 93° |
| 2026-04-22 03:40 | 34.72024 | -111.68988 | 11476 ft | 157 kts | 93° |
| 2026-04-22 03:40 | 34.72139 | -111.67666 | 11457 ft | 157 kts | 92° |
| 2026-04-22 03:40 | 34.72253 | -111.66384 | 11456 ft | 154 kts | 93° |
| 2026-04-22 03:40 | 34.72364 | -111.65096 | 11451 ft | 152 kts | 93° |
| 2026-04-22 03:41 | 34.72472 | -111.63822 | 11445 ft | 151 kts | 93° |
| 2026-04-22 03:41 | 34.72582 | -111.62554 | 11445 ft | 151 kts | 93° |
| 2026-04-22 03:41 | 34.72692 | -111.61294 | 11442 ft | 149 kts | 93° |
| 2026-04-22 03:41 | 34.72799 | -111.60032 | 11440 ft | 151 kts | 92° |
| 2026-04-22 03:42 | 34.72908 | -111.58759 | 11432 ft | 151 kts | 92° |
| 2026-04-22 03:42 | 34.73016 | -111.57510 | 11442 ft | 145 kts | 92° |
| 2026-04-22 03:42 | 34.73120 | -111.56295 | 11439 ft | 147 kts | 93° |
| 2026-04-22 03:42 | 34.73227 | -111.55044 | 11370 ft | 149 kts | 93° |
| 2026-04-22 03:43 | 34.73330 | -111.53799 | 11381 ft | 149 kts | 93° |
| 2026-04-22 03:43 | 34.73440 | -111.52547 | 11391 ft | 149 kts | 93° |
| 2026-04-22 03:43 | 34.73547 | -111.51285 | 11391 ft | 152 kts | 93° |
| 2026-04-22 03:43 | 34.73656 | -111.49998 | 11389 ft | 153 kts | 93° |
| 2026-04-22 03:44 | 34.73766 | -111.48712 | 11393 ft | 153 kts | 93° |
| 2026-04-22 03:44 | 34.73873 | -111.47428 | 11393 ft | 156 kts | 93° |
| 2026-04-22 03:44 | 34.73985 | -111.46117 | 11391 ft | 156 kts | 93° |
| 2026-04-22 03:44 | 34.74097 | -111.44807 | 11393 ft | 156 kts | 93° |
| 2026-04-22 03:45 | 34.74207 | -111.43496 | 11390 ft | 156 kts | 93° |
| 2026-04-22 03:45 | 34.74318 | -111.42181 | 11388 ft | 158 kts | 93° |
| 2026-04-22 03:45 | 34.74429 | -111.40853 | 11389 ft | 158 kts | 93° |
| 2026-04-22 03:45 | 34.74543 | -111.39521 | 11398 ft | 158 kts | 93° |
| 2026-04-22 03:46 | 34.74655 | -111.38185 | 11402 ft | 160 kts | 93° |
| 2026-04-22 03:46 | 34.74768 | -111.36840 | 11395 ft | 160 kts | 92° |
| 2026-04-22 03:46 | 34.74881 | -111.35508 | 11400 ft | 157 kts | 93° |
| 2026-04-22 03:46 | 34.74990 | -111.34201 | 11400 ft | 158 kts | 93° |
| 2026-04-22 03:47 | 34.75100 | -111.32879 | 11400 ft | 156 kts | 93° |
| 2026-04-22 03:47 | 34.75211 | -111.31566 | 11400 ft | 156 kts | 93° |
| 2026-04-22 03:47 | 34.75302 | -111.30473 | 11398 ft | 156 kts | 93° |
| 2026-04-22 03:47 | 34.75410 | -111.29175 | 11399 ft | 155 kts | 93° |
| 2026-04-22 03:48 | 34.75518 | -111.27870 | 11397 ft | 155 kts | 93° |
| 2026-04-22 03:48 | 34.75627 | -111.26569 | 11391 ft | 154 kts | 93° |
| 2026-04-22 03:48 | 34.75734 | -111.25273 | 11392 ft | 154 kts | 93° |
| 2026-04-22 03:48 | 34.75842 | -111.23974 | 11392 ft | 154 kts | 93° |
| 2026-04-22 03:49 | 34.75949 | -111.22678 | 11394 ft | 154 kts | 93° |
| 2026-04-22 03:49 | 34.76055 | -111.21394 | 11395 ft | 155 kts | 93° |
| 2026-04-22 03:49 | 34.76162 | -111.20092 | 11393 ft | 154 kts | 93° |
| 2026-04-22 03:49 | 34.76270 | -111.18801 | 11392 ft | 153 kts | 93° |
| 2026-04-22 03:50 | 34.76376 | -111.17517 | 11389 ft | 152 kts | 93° |
| 2026-04-22 03:50 | 34.76482 | -111.16237 | 11391 ft | 152 kts | 94° |
| 2026-04-22 03:50 | 34.76586 | -111.14953 | 11393 ft | 153 kts | 94° |
| 2026-04-22 03:50 | 34.76692 | -111.13661 | 11373 ft | 153 kts | 94° |
| 2026-04-22 03:51 | 34.76797 | -111.12385 | 11392 ft | 152 kts | 94° |
| 2026-04-22 03:51 | 34.76900 | -111.11119 | 11389 ft | 152 kts | 94° |
| 2026-04-22 03:51 | 34.77006 | -111.09843 | 11390 ft | 151 kts | 94° |
| 2026-04-22 03:51 | 34.77109 | -111.08573 | 11391 ft | 151 kts | 94° |
| 2026-04-22 03:52 | 34.77213 | -111.07298 | 11392 ft | 151 kts | 94° |
| 2026-04-22 03:52 | 34.77316 | -111.06023 | 11390 ft | 152 kts | 95° |
| 2026-04-22 03:52 | 34.77420 | -111.04747 | 11397 ft | 152 kts | 95° |
| 2026-04-22 03:52 | 34.77525 | -111.03473 | 11396 ft | 151 kts | 95° |
| 2026-04-22 03:53 | 34.77628 | -111.02210 | 11398 ft | 149 kts | 95° |
| 2026-04-22 03:53 | 34.77728 | -111.00970 | 11401 ft | 149 kts | 95° |
| 2026-04-22 03:53 | 34.77829 | -110.99715 | 11397 ft | 149 kts | 95° |
| 2026-04-22 03:53 | 34.77930 | -110.98462 | 11402 ft | 149 kts | 95° |
| 2026-04-22 03:54 | 34.78031 | -110.97204 | 11403 ft | 150 kts | 94° |
| 2026-04-22 03:54 | 34.78133 | -110.95947 | 11404 ft | 149 kts | 95° |
| 2026-04-22 03:54 | 34.78234 | -110.94698 | 11407 ft | 148 kts | 95° |
| 2026-04-22 03:54 | 34.78334 | -110.93446 | 11410 ft | 149 kts | 95° |
| 2026-04-22 03:55 | 34.78435 | -110.92192 | 11415 ft | 149 kts | 95° |
| 2026-04-22 03:55 | 34.78535 | -110.90932 | 11419 ft | 151 kts | 95° |
| 2026-04-22 03:55 | 34.78637 | -110.89658 | 11425 ft | 152 kts | 94° |
| 2026-04-22 03:55 | 34.78738 | -110.88374 | 11423 ft | 160 kts | 94° |
| 2026-04-22 03:56 | 34.78847 | -110.86946 | 11428 ft | 178 kts | 93° |
| 2026-04-22 03:56 | 34.78973 | -110.85388 | 11424 ft | 191 kts | 92° |
| 2026-04-22 03:56 | 34.79105 | -110.83750 | 11433 ft | 197 kts | 92° |
| 2026-04-22 03:56 | 34.79238 | -110.82072 | 11435 ft | 201 kts | 92° |
| 2026-04-22 03:57 | 34.79372 | -110.80362 | 11417 ft | 203 kts | 91° |
| 2026-04-22 03:57 | 34.79510 | -110.78647 | 11428 ft | 205 kts | 90° |
| 2026-04-22 03:57 | 34.79650 | -110.76941 | 11431 ft | 206 kts | 90° |
| 2026-04-22 03:57 | 34.79786 | -110.75201 | 11433 ft | 207 kts | 91° |
| 2026-04-22 03:58 | 34.79920 | -110.73462 | 11431 ft | 207 kts | 91° |
| 2026-04-22 03:58 | 34.80057 | -110.71721 | 11430 ft | 207 kts | 91° |
| 2026-04-22 03:58 | 34.80195 | -110.69982 | 11430 ft | 206 kts | 90° |
| 2026-04-22 03:58 | 34.80331 | -110.68246 | 11429 ft | 206 kts | 91° |
| 2026-04-22 03:59 | 34.80467 | -110.66512 | 11431 ft | 206 kts | 91° |
| 2026-04-22 03:59 | 34.80602 | -110.64771 | 11430 ft | 207 kts | 91° |
| 2026-04-22 03:59 | 34.80736 | -110.63052 | 11429 ft | 207 kts | 90° |
| 2026-04-22 03:59 | 34.80872 | -110.61310 | 11366 ft | 207 kts | 90° |
| 2026-04-22 04:00 | 34.81007 | -110.59572 | 11362 ft | 206 kts | 91° |
| 2026-04-22 04:00 | 34.81143 | -110.57830 | 11365 ft | 207 kts | 91° |
| 2026-04-22 04:00 | 34.81278 | -110.56084 | 11362 ft | 207 kts | 91° |
| 2026-04-22 04:00 | 34.81413 | -110.54335 | 11364 ft | 208 kts | 91° |
| 2026-04-22 04:01 | 34.81547 | -110.52583 | 11365 ft | 208 kts | 91° |
| 2026-04-22 04:01 | 34.81680 | -110.50831 | 11365 ft | 208 kts | 91° |
| 2026-04-22 04:01 | 34.81814 | -110.49081 | 11364 ft | 207 kts | 91° |
| 2026-04-22 04:01 | 34.81947 | -110.47356 | 11364 ft | 208 kts | 91° |
| 2026-04-22 04:02 | 34.82081 | -110.45613 | 11354 ft | 206 kts | 90° |
| 2026-04-22 04:02 | 34.82213 | -110.43878 | 11350 ft | 206 kts | 91° |
| 2026-04-22 04:02 | 34.82345 | -110.42150 | 11349 ft | 205 kts | 91° |
| 2026-04-22 04:02 | 34.82476 | -110.40427 | 11350 ft | 205 kts | 91° |
| 2026-04-22 04:03 | 34.82607 | -110.38702 | 11349 ft | 205 kts | 91° |
| 2026-04-22 04:03 | 34.82740 | -110.36972 | 11350 ft | 205 kts | 91° |
| 2026-04-22 04:03 | 34.82868 | -110.35263 | 11348 ft | 205 kts | 91° |
| 2026-04-22 04:03 | 34.82998 | -110.33534 | 11341 ft | 205 kts | 90° |
| 2026-04-22 04:04 | 34.83127 | -110.31805 | 11342 ft | 205 kts | 91° |
| 2026-04-22 04:04 | 34.83256 | -110.30079 | 11342 ft | 205 kts | 91° |
| 2026-04-22 04:04 | 34.83385 | -110.28351 | 11340 ft | 205 kts | 91° |
| 2026-04-22 04:04 | 34.83516 | -110.26620 | 11341 ft | 205 kts | 91° |
| 2026-04-22 04:05 | 34.83647 | -110.24890 | 11343 ft | 205 kts | 91° |
| 2026-04-22 04:05 | 34.83776 | -110.23158 | 11341 ft | 206 kts | 90° |
| 2026-04-22 04:05 | 34.83905 | -110.21424 | 11343 ft | 206 kts | 91° |
| 2026-04-22 04:05 | 34.84031 | -110.19717 | 11333 ft | 205 kts | 91° |
| 2026-04-22 04:06 | 34.84161 | -110.17989 | 11332 ft | 205 kts | 91° |
| 2026-04-22 04:06 | 34.84289 | -110.16262 | 11333 ft | 205 kts | 91° |
| 2026-04-22 04:06 | 34.84415 | -110.14535 | 11336 ft | 205 kts | 91° |
| 2026-04-22 04:06 | 34.84541 | -110.12808 | 11333 ft | 204 kts | 91° |
| 2026-04-22 04:07 | 34.84667 | -110.11093 | 11331 ft | 203 kts | 91° |
| 2026-04-22 04:07 | 34.84792 | -110.09386 | 11332 ft | 202 kts | 91° |
| 2026-04-22 04:07 | 34.84918 | -110.07682 | 11334 ft | 202 kts | 91° |
| 2026-04-22 04:07 | 34.85041 | -110.05997 | 11329 ft | 203 kts | 90° |
| 2026-04-22 04:08 | 34.85167 | -110.04283 | 11334 ft | 203 kts | 90° |
| 2026-04-22 04:08 | 34.85291 | -110.02570 | 11333 ft | 203 kts | 90° |
| 2026-04-22 04:08 | 34.85415 | -110.00858 | 11333 ft | 203 kts | 91° |
| 2026-04-22 04:08 | 34.85540 | -109.99145 | 11333 ft | 203 kts | 91° |
| 2026-04-22 04:09 | 34.85664 | -109.97431 | 11333 ft | 203 kts | 91° |
| 2026-04-22 04:09 | 34.85787 | -109.95716 | 11334 ft | 204 kts | 91° |
| 2026-04-22 04:09 | 34.85912 | -109.93998 | 11336 ft | 204 kts | 91° |
| 2026-04-22 04:09 | 34.86034 | -109.92299 | 11328 ft | 204 kts | 91° |
| 2026-04-22 04:10 | 34.86160 | -109.90573 | 11328 ft | 205 kts | 91° |
| 2026-04-22 04:10 | 34.86283 | -109.88850 | 11328 ft | 204 kts | 91° |
| 2026-04-22 04:10 | 34.86405 | -109.87126 | 11329 ft | 204 kts | 91° |
| 2026-04-22 04:10 | 34.86528 | -109.85404 | 11328 ft | 205 kts | 91° |
| 2026-04-22 04:11 | 34.86653 | -109.83677 | 11324 ft | 205 kts | 90° |
| 2026-04-22 04:11 | 34.86776 | -109.81955 | 11325 ft | 204 kts | 91° |
| 2026-04-22 04:11 | 34.86897 | -109.80238 | 11324 ft | 204 kts | 91° |
| 2026-04-22 04:11 | 34.87017 | -109.78541 | 11320 ft | 203 kts | 90° |
| 2026-04-22 04:12 | 34.87139 | -109.76823 | 11322 ft | 203 kts | 90° |
| 2026-04-22 04:12 | 34.87259 | -109.75109 | 11323 ft | 203 kts | 90° |
| 2026-04-22 04:12 | 34.87379 | -109.73400 | 11322 ft | 202 kts | 91° |
| 2026-04-22 04:12 | 34.87498 | -109.71690 | 11322 ft | 203 kts | 90° |
| 2026-04-22 04:13 | 34.87619 | -109.69979 | 11324 ft | 203 kts | 90° |
| 2026-04-22 04:13 | 34.87741 | -109.68263 | 11324 ft | 203 kts | 91° |
| 2026-04-22 04:13 | 34.87860 | -109.66544 | 11323 ft | 204 kts | 91° |
| 2026-04-22 04:13 | 34.87977 | -109.64847 | 11315 ft | 204 kts | 91° |
| 2026-04-22 04:14 | 34.88096 | -109.63130 | 11316 ft | 203 kts | 90° |
| 2026-04-22 04:14 | 34.88216 | -109.61417 | 11318 ft | 203 kts | 91° |
| 2026-04-22 04:14 | 34.88336 | -109.59705 | 11317 ft | 203 kts | 91° |
| 2026-04-22 04:14 | 34.88455 | -109.57990 | 11315 ft | 203 kts | 90° |
| 2026-04-22 04:15 | 34.88573 | -109.56276 | 11312 ft | 203 kts | 90° |
| 2026-04-22 04:15 | 34.88691 | -109.54563 | 11312 ft | 203 kts | 90° |
| 2026-04-22 04:15 | 34.88807 | -109.52872 | 11312 ft | 203 kts | 90° |
| 2026-04-22 04:15 | 34.88921 | -109.51161 | 11314 ft | 203 kts | 90° |
| 2026-04-22 04:16 | 34.89038 | -109.49451 | 11316 ft | 203 kts | 90° |
| 2026-04-22 04:16 | 34.89273 | -109.46041 | 11314 ft | 202 kts | 90° |
| 2026-04-22 04:16 | 34.89390 | -109.44340 | 11313 ft | 201 kts | 90° |
| 2026-04-22 04:17 | 34.89504 | -109.42645 | 11314 ft | 201 kts | 90° |
| 2026-04-22 04:17 | 34.89619 | -109.40948 | 11314 ft | 201 kts | 90° |
| 2026-04-22 04:17 | 34.89695 | -109.39825 | 11313 ft | 201 kts | 90° |
| 2026-04-22 04:17 | 34.89847 | -109.37583 | 11310 ft | 200 kts | 90° |
| 2026-04-22 04:18 | 34.89960 | -109.35892 | 11311 ft | 201 kts | 90° |
| 2026-04-22 04:18 | 34.90073 | -109.34195 | 11312 ft | 201 kts | 90° |
| 2026-04-22 04:18 | 34.90186 | -109.32496 | 11311 ft | 201 kts | 90° |
| 2026-04-22 04:18 | 34.90299 | -109.30803 | 11310 ft | 200 kts | 90° |
| 2026-04-22 04:19 | 34.90375 | -109.29684 | 11312 ft | 200 kts | 90° |
| 2026-04-22 04:19 | 34.90488 | -109.27993 | 11311 ft | 200 kts | 90° |
| 2026-04-22 04:19 | 34.90600 | -109.26303 | 11311 ft | 200 kts | 90° |
| 2026-04-22 04:19 | 34.90749 | -109.24065 | 11309 ft | 200 kts | 90° |
| 2026-04-22 04:20 | 34.90860 | -109.22372 | 11306 ft | 201 kts | 90° |
| 2026-04-22 04:20 | 34.90972 | -109.20682 | 11305 ft | 200 kts | 90° |
| 2026-04-22 04:20 | 34.91084 | -109.18997 | 11306 ft | 200 kts | 90° |
| 2026-04-22 04:20 | 34.91195 | -109.17310 | 11306 ft | 200 kts | 90° |
| 2026-04-22 04:21 | 34.91268 | -109.16193 | 11309 ft | 200 kts | 90° |
| 2026-04-22 04:21 | 34.91380 | -109.14504 | 11310 ft | 200 kts | 90° |
| 2026-04-22 04:21 | 34.91491 | -109.12811 | 11310 ft | 201 kts | 90° |
| 2026-04-22 04:21 | 34.91600 | -109.11111 | 11304 ft | 202 kts | 88° |
| 2026-04-22 04:22 | 34.91713 | -109.09401 | 11305 ft | 203 kts | 88° |
| 2026-04-22 04:22 | 34.91824 | -109.07684 | 11311 ft | 204 kts | 89° |
| 2026-04-22 04:22 | 34.91933 | -109.05988 | 11311 ft | 203 kts | 88° |
| 2026-04-22 04:22 | 34.92044 | -109.04268 | 11312 ft | 204 kts | 88° |
| 2026-04-22 04:23 | 34.92155 | -109.02542 | 11312 ft | 204 kts | 89° |
| 2026-04-22 04:23 | 34.92266 | -109.00815 | 11312 ft | 204 kts | 89° |
| 2026-04-22 04:23 | 34.92377 | -108.99089 | 11311 ft | 204 kts | 89° |
| 2026-04-22 04:23 | 34.92525 | -108.96802 | 11312 ft | 204 kts | 89° |
| 2026-04-22 04:24 | 34.92598 | -108.95638 | 11311 ft | 204 kts | 89° |
| 2026-04-22 04:24 | 34.92709 | -108.93914 | 11311 ft | 204 kts | 88° |
| 2026-04-22 04:24 | 34.92821 | -108.92186 | 11312 ft | 204 kts | 89° |
| 2026-04-22 04:24 | 34.92928 | -108.90482 | 11311 ft | 204 kts | 88° |
| 2026-04-22 04:25 | 34.93037 | -108.88755 | 11314 ft | 205 kts | 89° |
| 2026-04-22 04:25 | 34.93146 | -108.87025 | 11312 ft | 205 kts | 88° |
| 2026-04-22 04:25 | 34.93256 | -108.85292 | 11313 ft | 205 kts | 89° |
| 2026-04-22 04:25 | 34.93364 | -108.83557 | 11311 ft | 206 kts | 88° |
| 2026-04-22 04:26 | 34.93475 | -108.81820 | 11310 ft | 205 kts | 88° |
| 2026-04-22 04:26 | 34.93584 | -108.80083 | 11309 ft | 206 kts | 89° |
| 2026-04-22 04:26 | 34.93692 | -108.78346 | 11307 ft | 205 kts | 88° |
| 2026-04-22 04:26 | 34.93799 | -108.76639 | 11308 ft | 205 kts | 87° |
| 2026-04-22 04:27 | 34.93907 | -108.74907 | 11309 ft | 206 kts | 88° |
| 2026-04-22 04:27 | 34.94014 | -108.73165 | 11309 ft | 207 kts | 88° |
| 2026-04-22 04:27 | 34.94123 | -108.71421 | 11301 ft | 204 kts | 87° |
| 2026-04-22 04:27 | 34.94232 | -108.69692 | 11318 ft | 206 kts | 88° |
| 2026-04-22 04:28 | 34.94339 | -108.67942 | 11320 ft | 208 kts | 88° |
| 2026-04-22 04:28 | 34.94446 | -108.66184 | 11321 ft | 208 kts | 88° |
| 2026-04-22 04:28 | 34.94552 | -108.64427 | 11319 ft | 208 kts | 88° |
| 2026-04-22 04:28 | 34.94658 | -108.62696 | 11318 ft | 207 kts | 88° |
| 2026-04-22 04:29 | 34.94766 | -108.60946 | 11317 ft | 207 kts | 88° |
| 2026-04-22 04:29 | 34.94872 | -108.59195 | 11319 ft | 208 kts | 88° |
| 2026-04-22 04:29 | 34.94980 | -108.57440 | 11319 ft | 208 kts | 88° |
| 2026-04-22 04:29 | 34.95085 | -108.55688 | 11317 ft | 207 kts | 88° |
| 2026-04-22 04:30 | 34.95191 | -108.53938 | 11318 ft | 208 kts | 88° |
| 2026-04-22 04:30 | 34.95299 | -108.52186 | 11317 ft | 207 kts | 88° |
| 2026-04-22 04:30 | 34.95403 | -108.50457 | 11316 ft | 207 kts | 88° |
| 2026-04-22 04:30 | 34.95506 | -108.48707 | 11318 ft | 207 kts | 88° |
| 2026-04-22 04:31 | 34.95612 | -108.46955 | 11319 ft | 208 kts | 88° |
| 2026-04-22 04:31 | 34.95717 | -108.45200 | 11320 ft | 208 kts | 87° |
| 2026-04-22 04:31 | 34.95823 | -108.43439 | 11321 ft | 209 kts | 87° |
| 2026-04-22 04:31 | 34.95927 | -108.41678 | 11319 ft | 209 kts | 86° |
| 2026-04-22 04:32 | 34.96034 | -108.39916 | 11320 ft | 208 kts | 86° |
| 2026-04-22 04:32 | 34.96074 | -108.39249 | 11319 ft | 208 kts | 86° |
| 2026-04-22 04:32 | 34.96115 | -108.38546 | 11320 ft | 208 kts | 86° |
| 2026-04-22 04:32 | 34.96216 | -108.36784 | 11319 ft | 208 kts | 86° |
| 2026-04-22 04:33 | 34.96319 | -108.35021 | 11320 ft | 208 kts | 86° |
| 2026-04-22 04:33 | 34.96422 | -108.33260 | 11320 ft | 208 kts | 86° |
| 2026-04-22 04:33 | 34.96526 | -108.31495 | 11319 ft | 209 kts | 86° |
| 2026-04-22 04:33 | 34.96630 | -108.29732 | 11320 ft | 209 kts | 86° |
| 2026-04-22 04:34 | 34.96734 | -108.27967 | 11319 ft | 209 kts | 86° |
| 2026-04-22 04:34 | 34.96831 | -108.26340 | 11318 ft | 209 kts | 86° |
| 2026-04-22 04:34 | 34.96877 | -108.25556 | 11318 ft | 209 kts | 86° |
| 2026-04-22 04:35 | 34.96976 | -108.23793 | 11319 ft | 208 kts | 86° |
| 2026-04-22 04:35 | 34.97079 | -108.22033 | 11319 ft | 208 kts | 86° |
| 2026-04-22 04:35 | 34.97181 | -108.20270 | 11318 ft | 209 kts | 86° |
| 2026-04-22 04:35 | 34.97283 | -108.18505 | 11320 ft | 209 kts | 86° |
| 2026-04-22 04:36 | 34.97382 | -108.16740 | 11319 ft | 209 kts | 86° |
| 2026-04-22 04:36 | 34.97485 | -108.14973 | 11320 ft | 209 kts | 86° |
| 2026-04-22 04:36 | 34.97584 | -108.13233 | 11319 ft | 209 kts | 86° |
| 2026-04-22 04:36 | 34.97684 | -108.11470 | 11319 ft | 209 kts | 86° |
| 2026-04-22 04:37 | 34.97785 | -108.09705 | 11321 ft | 208 kts | 86° |
| 2026-04-22 04:37 | 34.97886 | -108.07945 | 11315 ft | 208 kts | 86° |
| 2026-04-22 04:37 | 34.97984 | -108.06191 | 11320 ft | 207 kts | 86° |
| 2026-04-22 04:37 | 34.98081 | -108.04433 | 11314 ft | 207 kts | 86° |
| 2026-04-22 04:38 | 34.98182 | -108.02678 | 11316 ft | 207 kts | 86° |
| 2026-04-22 04:38 | 34.98283 | -108.00924 | 11321 ft | 208 kts | 86° |
| 2026-04-22 04:38 | 34.98379 | -107.99190 | 11318 ft | 208 kts | 86° |
| 2026-04-22 04:38 | 34.98477 | -107.97425 | 11321 ft | 209 kts | 86° |
| 2026-04-22 04:39 | 34.98575 | -107.95653 | 11321 ft | 209 kts | 86° |
| 2026-04-22 04:39 | 34.98673 | -107.93881 | 11319 ft | 210 kts | 86° |
| 2026-04-22 04:39 | 34.98770 | -107.92111 | 11320 ft | 209 kts | 86° |
| 2026-04-22 04:39 | 34.98867 | -107.90348 | 11320 ft | 208 kts | 86° |
| 2026-04-22 04:40 | 34.98965 | -107.88590 | 11319 ft | 208 kts | 86° |
| 2026-04-22 04:40 | 34.99061 | -107.86833 | 11315 ft | 208 kts | 86° |
| 2026-04-22 04:40 | 34.99157 | -107.85097 | 11316 ft | 208 kts | 86° |
| 2026-04-22 04:40 | 34.99253 | -107.83336 | 11318 ft | 208 kts | 86° |
| 2026-04-22 04:41 | 34.99349 | -107.81575 | 11315 ft | 208 kts | 86° |
| 2026-04-22 04:41 | 34.99445 | -107.79816 | 11318 ft | 208 kts | 86° |
| 2026-04-22 04:41 | 34.99542 | -107.78052 | 11318 ft | 209 kts | 86° |
| 2026-04-22 04:41 | 34.99636 | -107.76284 | 11318 ft | 209 kts | 86° |
| 2026-04-22 04:42 | 34.99731 | -107.74517 | 11319 ft | 209 kts | 86° |
| 2026-04-22 04:42 | 34.99827 | -107.72757 | 11306 ft | 207 kts | 86° |
| 2026-04-22 04:42 | 34.99918 | -107.71032 | 11306 ft | 206 kts | 86° |
| 2026-04-22 04:42 | 35.00013 | -107.69287 | 11307 ft | 206 kts | 86° |
| 2026-04-22 04:43 | 35.00104 | -107.67539 | 11306 ft | 207 kts | 86° |
| 2026-04-22 04:43 | 35.00199 | -107.65796 | 11307 ft | 206 kts | 86° |
| 2026-04-22 04:43 | 35.00292 | -107.64048 | 11308 ft | 207 kts | 85° |
| 2026-04-22 04:43 | 35.00385 | -107.62294 | 11306 ft | 207 kts | 85° |
| 2026-04-22 04:44 | 35.00479 | -107.60544 | 11296 ft | 207 kts | 86° |
| 2026-04-22 04:44 | 35.00571 | -107.58794 | 11293 ft | 206 kts | 86° |
| 2026-04-22 04:44 | 35.00659 | -107.57073 | 11293 ft | 206 kts | 86° |
| 2026-04-22 04:44 | 35.00750 | -107.55333 | 11293 ft | 206 kts | 86° |
| 2026-04-22 04:45 | 35.00841 | -107.53594 | 11293 ft | 205 kts | 86° |
| 2026-04-22 04:45 | 35.00931 | -107.51864 | 11293 ft | 204 kts | 86° |
| 2026-04-22 04:45 | 35.01021 | -107.50128 | 11292 ft | 206 kts | 86° |
| 2026-04-22 04:45 | 35.01111 | -107.48395 | 11297 ft | 204 kts | 86° |
| 2026-04-22 04:46 | 35.01200 | -107.46665 | 11288 ft | 204 kts | 86° |
| 2026-04-22 04:46 | 35.01290 | -107.44929 | 11288 ft | 205 kts | 86° |
| 2026-04-22 04:46 | 35.01377 | -107.43214 | 11291 ft | 206 kts | 86° |
| 2026-04-22 04:46 | 35.01467 | -107.41468 | 11289 ft | 206 kts | 86° |
| 2026-04-22 04:47 | 35.01557 | -107.39726 | 11285 ft | 205 kts | 86° |
| 2026-04-22 04:47 | 35.01646 | -107.37999 | 11284 ft | 203 kts | 88° |
| 2026-04-22 04:47 | 35.01731 | -107.36280 | 11284 ft | 203 kts | 88° |
| 2026-04-22 04:47 | 35.01817 | -107.34568 | 11284 ft | 202 kts | 88° |
| 2026-04-22 04:48 | 35.01904 | -107.32861 | 11283 ft | 202 kts | 87° |
| 2026-04-22 04:48 | 35.01990 | -107.31155 | 11273 ft | 201 kts | 88° |
| 2026-04-22 04:48 | 35.02076 | -107.29451 | 11273 ft | 201 kts | 87° |
| 2026-04-22 04:48 | 35.02160 | -107.27770 | 11272 ft | 201 kts | 87° |
| 2026-04-22 04:49 | 35.02245 | -107.26067 | 11273 ft | 201 kts | 87° |
| 2026-04-22 04:49 | 35.02330 | -107.24361 | 11274 ft | 201 kts | 88° |
| 2026-04-22 04:49 | 35.02414 | -107.22657 | 11273 ft | 201 kts | 88° |
| 2026-04-22 04:49 | 35.02499 | -107.20955 | 11273 ft | 201 kts | 87° |
| 2026-04-22 04:50 | 35.02584 | -107.19250 | 11272 ft | 202 kts | 88° |
| 2026-04-22 04:50 | 35.02666 | -107.17543 | 11267 ft | 202 kts | 88° |
| 2026-04-22 04:50 | 35.02750 | -107.15835 | 11264 ft | 201 kts | 88° |
| 2026-04-22 04:50 | 35.02834 | -107.14156 | 11261 ft | 200 kts | 87° |
| 2026-04-22 04:51 | 35.02916 | -107.12459 | 11263 ft | 201 kts | 88° |
| 2026-04-22 04:51 | 35.02999 | -107.10763 | 11263 ft | 200 kts | 88° |
| 2026-04-22 04:51 | 35.03081 | -107.09072 | 11263 ft | 200 kts | 88° |
| 2026-04-22 04:52 | 35.03257 | -107.05408 | 11265 ft | 201 kts | 88° |
| 2026-04-22 04:52 | 35.03341 | -107.03710 | 11264 ft | 200 kts | 89° |
| 2026-04-22 04:52 | 35.03421 | -107.02019 | 11264 ft | 199 kts | 89° |
| 2026-04-22 04:52 | 35.03500 | -107.00330 | 11256 ft | 200 kts | 89° |
| 2026-04-22 04:53 | 35.03581 | -106.98623 | 11073 ft | 209 kts | 89° |
| 2026-04-22 04:53 | 35.03665 | -106.96822 | 10813 ft | 216 kts | 89° |
| 2026-04-22 04:53 | 35.03753 | -106.94969 | 10544 ft | 221 kts | 89° |
| 2026-04-22 04:53 | 35.03843 | -106.93083 | 10256 ft | 224 kts | 89° |
| 2026-04-22 04:54 | 35.03934 | -106.91174 | 9964 ft | 226 kts | 89° |
| 2026-04-22 04:54 | 35.04023 | -106.89252 | 9654 ft | 227 kts | 89° |
| 2026-04-22 04:54 | 35.04114 | -106.87327 | 9551 ft | 227 kts | 89° |
| 2026-04-22 04:54 | 35.04204 | -106.85410 | 9255 ft | 226 kts | 89° |
| 2026-04-22 04:55 | 35.04293 | -106.83508 | 8964 ft | 224 kts | 89° |
| 2026-04-22 04:55 | 35.04375 | -106.81615 | 8670 ft | 222 kts | 91° |
| 2026-04-22 04:55 | 35.04354 | -106.79733 | 8355 ft | 222 kts | 91° |
| 2026-04-22 04:55 | 35.04412 | -106.77878 | 8059 ft | 221 kts | 90° |
| 2026-04-22 04:56 | 35.04489 | -106.76016 | 7763 ft | 219 kts | 90° |
| 2026-04-22 04:56 | 35.04569 | -106.74168 | 7472 ft | 217 kts | 90° |
| 2026-04-22 04:56 | 35.04636 | -106.72330 | 7132 ft | 216 kts | 92° |
| 2026-04-22 04:56 | 35.04613 | -106.70507 | 6660 ft | 215 kts | 97° |
| 2026-04-22 04:57 | 35.04511 | -106.68734 | 6423 ft | 203 kts | 97° |
| 2026-04-22 04:57 | 35.04448 | -106.67116 | 6132 ft | 174 kts | 92° |
| 2026-04-22 04:57 | 35.04470 | -106.65763 | 5907 ft | 149 kts | 91° |
| 2026-04-22 04:57 | 35.04447 | -106.64564 | 5810 ft | 133 kts | 92° |
| 2026-04-22 04:58 | 35.04450 | -106.63462 | 5646 ft | 129 kts | 91° |
| 2026-04-22 04:58 | 35.04444 | -106.62436 | 5473 ft | 110 kts | 93° |
| 2026-04-22 04:58 | 35.04441 | -106.61497 | 5498 ft | 114 kts | 92° |
| 2026-04-22 04:58 | 35.04427 | -106.60556 | 5931 ft | 108 kts | 92° |
| 2026-04-22 04:59 | 35.04441 | -106.59592 | 6190 ft | 115 kts | 92° |
| 2026-04-22 04:59 | 35.04440 | -106.58593 | 6392 ft | 121 kts | 93° |
| 2026-04-22 04:59 | 35.04413 | -106.57563 | 6438 ft | 126 kts | 95° |
| 2026-04-22 04:59 | 35.04262 | -106.56519 | 6381 ft | 124 kts | 124° |
| 2026-04-22 05:00 | 35.03643 | -106.56009 | 6331 ft | 102 kts | 178° |
| 2026-04-22 05:00 | 35.03014 | -106.56335 | 6169 ft | 104 kts | 222° |
| 2026-04-22 05:00 | 35.02540 | -106.56994 | 5991 ft | 104 kts | 227° |
| 2026-04-22 05:00 | 35.02107 | -106.57668 | 5861 ft | 107 kts | 241° |
| 2026-04-22 05:01 | 35.02114 | -106.58548 | 5672 ft | 109 kts | 295° |
| 2026-04-22 05:01 | 35.02527 | -106.59292 | 5592 ft | 106 kts | 304° |
| 2026-04-22 05:01 | 35.02962 | -106.59995 | 5490 ft | 103 kts | 308° |
| 2026-04-22 05:01 | 35.03415 | -106.60664 | 5329 ft | 93 kts | 308° |
| 2026-04-22 05:02 | 35.03737 | -106.61148 | 5323 ft | 58 kts | 309° |
| 2026-04-22 05:02 | 35.03941 | -106.61452 | 5320 ft | 35 kts | 309° |
| 2026-04-22 05:02 | 35.04073 | -106.61660 | 5317 ft | 26 kts | 298° |
| 2026-04-22 05:02 | 35.04038 | -106.61735 | 5315 ft | 5 kts | 180° |
| 2026-04-22 05:03 | 35.04037 | -106.61735 | 5320 ft | 0 kts | 183° |
| 2026-04-22 05:03 | 35.04036 | -106.61735 | 5320 ft | 2 kts | 184° |
| 2026-04-22 05:03 | 35.04018 | -106.61735 | 5320 ft | 0 kts | 174° |
| 2026-04-22 05:04 | 35.04017 | -106.61735 | 5320 ft | 3 kts | 180° |
| 2026-04-22 05:04 | 35.03965 | -106.61768 | 5314 ft | 13 kts | 225° |
| 2026-04-22 05:04 | 35.03912 | -106.61854 | 5317 ft | 8 kts | 233° |
| 2026-04-22 05:05 | 35.03905 | -106.61883 | 5317 ft | 0 kts | 272° |